Herbert J Plaisance — WDE6917 — position and weather

sailwx.info

Track history (hours):
 
Tides and Currents Weather Stations Pressure Air Temp Water Temp Dewpoint Dewpoint Depression Visibility Wind Speed Wind Dir Waves Ship Positions

Herbert J Plaisance

Owner: S & B Marine LLC, Harvey, LA. More information available from US FCC via Universal Licensing System and Coast Guard Vessel Documentation Center.

Last reported at 2015-Feb-18 06:11 UTC. Time now 2015-Mar-03 18:49 UTC.
Position N 29°57' W 090°10'.
Warning: this ship's position is 13 days out of date.

Length 20 m; draft 3 m.

Type: Towing. MMSI: 367386576.

Date/timePositionNaut miles runAvg speedWind from/ knotsBaromVisibWave heightAir tempDewpointWater temp
2015-Feb-18 06:11N 29°57' W 090°10'  
2015-Feb-10 05:16N 29°55' W 091°28'4 5.1
2015-Feb-10 04:33N 29°52' W 091°25'5 5.1
2015-Feb-10 03:33N 29°48' W 091°22'5 4.9
2015-Feb-10 02:33N 29°46' W 091°17'4 4.4
2015-Feb-10 01:33N 29°43' W 091°13'2 2.3
2015-Feb-10 00:33N 29°40' W 091°14'0 0.0
2015-Feb-09 23:33N 29°40' W 091°14'3 3.2
2015-Feb-09 22:33N 29°39' W 091°17'6 5.8
2015-Feb-09 21:33N 29°39' W 091°23'  
Track history (hours):
 
Tides and Currents Weather Stations Pressure Air Temp Water Temp Dewpoint Dewpoint Depression Visibility Wind Speed Wind Dir Waves Ship Positions

Herbert J Plaisance

Owner: S & B Marine LLC, Harvey, LA. More information available from US FCC via Universal Licensing System and Coast Guard Vessel Documentation Center.

Last reported at 2015-Feb-18 06:11 UTC. Time now 2015-Mar-03 18:49 UTC.
Position N 29°57' W 090°10'.
Warning: this ship's position is 13 days out of date.

Length 20 m; draft 3 m.

Type: Towing. MMSI: 367386576.

Date/timePositionNaut miles runAvg speedWind from/ knotsBaromVisibWave heightAir tempDewpointWater temp
2015-Feb-18 06:11N 29°57' W 090°10'  
2015-Feb-10 05:16N 29°55' W 091°28'4 5.1
2015-Feb-10 04:33N 29°52' W 091°25'5 5.1
2015-Feb-10 03:33N 29°48' W 091°22'5 4.9
2015-Feb-10 02:33N 29°46' W 091°17'4 4.4
2015-Feb-10 01:33N 29°43' W 091°13'2 2.3
2015-Feb-10 00:33N 29°40' W 091°14'0 0.0
2015-Feb-09 23:33N 29°40' W 091°14'3 3.2
2015-Feb-09 22:33N 29°39' W 091°17'6 5.8
2015-Feb-09 21:33N 29°39' W 091°23'  

Dump ship's entire track history